createdAt,value
2023-05-21T00:00:30.423Z,22.67
2023-05-21T00:02:04.013Z,18.37
2023-05-21T00:03:36.816Z,20.20
2023-05-21T00:05:14.325Z,19.27
2023-05-21T00:06:47.478Z,21.27
2023-05-21T00:08:20.226Z,20.03
2023-05-21T00:09:52.977Z,22.47
2023-05-21T00:11:25.932Z,23.30
2023-05-21T00:12:58.719Z,21.23
2023-05-21T00:14:32.789Z,19.40
2023-05-21T00:16:06.090Z,21.57
2023-05-21T00:17:39.851Z,20.50
2023-05-21T00:19:12.693Z,21.80
2023-05-21T00:20:45.674Z,21.17
2023-05-21T00:22:18.488Z,21.83
2023-05-21T00:23:51.232Z,20.40
2023-05-21T00:25:23.984Z,20.13
2023-05-21T00:26:56.045Z,20.90
2023-05-21T00:28:28.948Z,21.47
2023-05-21T00:30:03.297Z,19.23
2023-05-21T00:31:35.210Z,19.13
2023-05-21T00:33:10.311Z,20.47
2023-05-21T00:34:43.163Z,20.97
2023-05-21T00:36:15.931Z,21.47
2023-05-21T00:37:48.671Z,20.13
2023-05-21T00:39:21.401Z,18.47
2023-05-21T00:40:54.186Z,20.13
2023-05-21T00:42:27.327Z,21.03
2023-05-21T00:44:00.317Z,20.87
2023-05-21T00:45:37.203Z,20.33
2023-05-21T00:47:10.303Z,21.17
2023-05-21T00:48:43.549Z,19.53
2023-05-21T00:50:17.453Z,22.40
2023-05-21T00:51:49.615Z,22.00
2023-05-21T00:53:22.437Z,22.63
2023-05-21T00:54:55.910Z,20.47
2023-05-21T00:56:28.712Z,20.90
2023-05-21T00:58:01.462Z,25.20
2023-05-21T00:59:34.555Z,20.90
2023-05-21T01:01:13.959Z,22.60
2023-05-21T01:02:47.706Z,21.63
2023-05-21T01:04:21.332Z,20.37
2023-05-21T01:05:53.240Z,20.27
2023-05-21T01:07:26.181Z,21.53
2023-05-21T01:08:59.728Z,21.77
2023-05-21T01:10:32.484Z,22.23
2023-05-21T01:12:06.459Z,20.80
2023-05-21T01:13:40.946Z,26.03
2023-05-21T01:15:14.059Z,24.00
2023-05-21T01:16:50.207Z,21.77
2023-05-21T01:18:23.490Z,19.60
2023-05-21T01:19:57.411Z,21.87
2023-05-21T01:21:31.259Z,23.37
2023-05-21T01:23:06.250Z,21.83
2023-05-21T01:24:38.218Z,21.77
2023-05-21T01:26:12.904Z,21.17
2023-05-21T01:27:45.853Z,23.17
2023-05-21T01:29:19.278Z,21.30
2023-05-21T01:30:52.246Z,21.30
2023-05-21T01:32:29.759Z,24.10
2023-05-21T01:34:05.884Z,22.27
2023-05-21T01:35:43.979Z,20.63
2023-05-21T01:37:21.737Z,21.47
2023-05-21T01:39:02.041Z,20.70
2023-05-21T01:40:40.295Z,19.20
2023-05-21T01:42:15.552Z,18.33
2023-05-21T01:43:49.069Z,19.43
2023-05-21T01:45:24.831Z,19.77
2023-05-21T01:46:58.258Z,22.50
2023-05-21T01:48:31.504Z,18.93
2023-05-21T01:50:04.767Z,19.27
2023-05-21T01:51:37.826Z,20.47
2023-05-21T01:53:10.654Z,22.37
2023-05-21T01:54:44.737Z,18.83
2023-05-21T01:56:17.529Z,22.10
2023-05-21T01:57:51.078Z,21.77
2023-05-21T01:59:23.985Z,21.17
2023-05-21T02:00:56.971Z,21.70
2023-05-21T02:02:29.926Z,22.03
2023-05-21T02:04:02.902Z,22.80
2023-05-21T02:05:35.972Z,18.83
2023-05-21T02:07:08.055Z,21.57
2023-05-21T02:08:40.795Z,19.83
2023-05-21T02:10:15.757Z,20.10
2023-05-21T02:11:48.488Z,20.90
2023-05-21T02:13:24.965Z,20.63
2023-05-21T02:14:59.766Z,20.07
2023-05-21T02:16:32.651Z,20.17
2023-05-21T02:18:05.521Z,20.50
2023-05-21T02:19:38.353Z,20.13
2023-05-21T02:21:12.004Z,22.53
2023-05-21T02:22:45.574Z,21.57
2023-05-21T02:24:18.308Z,22.23
2023-05-21T02:25:52.647Z,19.10
2023-05-21T02:27:24.433Z,21.33
2023-05-21T02:28:57.155Z,21.20
2023-05-21T02:30:30.116Z,21.33
2023-05-21T02:32:03.030Z,22.37
2023-05-21T02:33:34.923Z,21.00
2023-05-21T02:35:08.212Z,21.87
2023-05-21T02:36:41.624Z,20.63
2023-05-21T02:38:13.687Z,22.40
2023-05-21T02:39:46.773Z,20.87
2023-05-21T02:41:21.103Z,20.87
2023-05-21T02:42:53.955Z,20.90
2023-05-21T02:44:26.680Z,19.97
2023-05-21T02:45:59.428Z,18.67
2023-05-21T02:47:31.257Z,20.80
2023-05-21T02:49:04.113Z,22.23
2023-05-21T02:50:36.830Z,20.00
2023-05-21T02:52:08.649Z,21.90
2023-05-21T02:53:41.376Z,19.73
2023-05-21T02:55:13.185Z,20.07
2023-05-21T02:56:47.282Z,20.87
2023-05-21T02:58:19.475Z,19.47
2023-05-21T02:59:52.248Z,21.37
2023-05-21T03:01:25.012Z,21.67
2023-05-21T03:02:56.905Z,19.87
2023-05-21T03:04:29.730Z,21.00
2023-05-21T03:06:01.554Z,18.37
2023-05-21T03:07:34.260Z,22.67
2023-05-21T03:09:07.082Z,21.23
2023-05-21T03:10:39.860Z,18.57
2023-05-21T03:12:14.000Z,19.87
2023-05-21T03:13:47.003Z,19.73
2023-05-21T03:15:23.811Z,19.53
2023-05-21T03:16:56.639Z,21.10
2023-05-21T03:18:29.432Z,17.53
2023-05-21T03:20:02.175Z,19.20
2023-05-21T03:21:34.073Z,17.87
2023-05-21T03:23:06.801Z,18.07
2023-05-21T03:24:38.681Z,18.77
2023-05-21T03:26:11.482Z,23.33
2023-05-21T03:27:45.605Z,20.90
2023-05-21T03:29:18.355Z,19.80
2023-05-21T03:30:51.992Z,19.73
2023-05-21T03:32:24.884Z,21.13
2023-05-21T03:33:57.710Z,19.27
2023-05-21T03:35:30.464Z,21.03
2023-05-21T03:37:03.223Z,20.53
2023-05-21T03:38:37.169Z,20.93
2023-05-21T03:40:10.783Z,20.27
2023-05-21T03:41:42.968Z,18.97
2023-05-21T03:43:17.044Z,19.10
2023-05-21T03:44:48.836Z,22.23
2023-05-21T03:46:21.628Z,18.90
2023-05-21T03:47:54.480Z,22.73
2023-05-21T03:49:27.355Z,17.63
2023-05-21T03:51:00.362Z,18.83
2023-05-21T03:52:32.190Z,18.57
2023-05-21T03:54:05.116Z,19.77
2023-05-21T03:55:38.034Z,21.80
2023-05-21T03:57:10.909Z,18.17
2023-05-21T03:58:44.985Z,19.07
2023-05-21T04:00:17.046Z,18.77
2023-05-21T04:01:49.786Z,21.13
2023-05-21T04:03:21.735Z,17.33
2023-05-21T04:04:55.740Z,17.33
2023-05-21T04:06:30.092Z,17.60
2023-05-21T04:08:02.853Z,17.20
2023-05-21T04:09:36.681Z,19.60
2023-05-21T04:11:09.626Z,18.90
2023-05-21T04:12:41.454Z,17.17
2023-05-21T04:14:15.930Z,18.53
2023-05-21T04:15:48.950Z,18.57
2023-05-21T04:17:21.924Z,16.07
2023-05-21T04:18:56.104Z,19.50
2023-05-21T04:20:28.925Z,21.00
2023-05-21T04:22:00.991Z,19.33
2023-05-21T04:23:36.578Z,18.63
2023-05-21T04:25:10.004Z,19.67
2023-05-21T04:26:43.247Z,18.87
2023-05-21T04:28:20.223Z,19.60
2023-05-21T04:29:54.950Z,18.10
2023-05-21T04:31:27.724Z,18.50
2023-05-21T04:33:00.723Z,17.77
2023-05-21T04:34:33.878Z,19.57
2023-05-21T04:36:09.757Z,17.87
2023-05-21T04:37:45.803Z,19.03
2023-05-21T04:39:18.545Z,17.00
2023-05-21T04:40:51.896Z,18.73
2023-05-21T04:42:24.876Z,15.60
2023-05-21T04:43:58.653Z,19.40
2023-05-21T04:45:32.776Z,17.17
2023-05-21T04:47:04.841Z,21.20
2023-05-21T04:48:37.660Z,19.10
2023-05-21T04:50:11.887Z,17.60
2023-05-21T04:51:44.631Z,17.63
2023-05-21T04:53:16.477Z,18.23
2023-05-21T04:54:49.850Z,15.97
2023-05-21T04:56:22.801Z,17.67
2023-05-21T04:57:55.666Z,16.60
2023-05-21T04:59:28.417Z,18.83
2023-05-21T05:01:03.277Z,16.63
2023-05-21T05:02:36.230Z,16.80
2023-05-21T05:04:09.496Z,17.33
2023-05-21T05:05:42.332Z,18.67
2023-05-21T05:07:15.499Z,20.10
2023-05-21T05:08:48.266Z,17.97
2023-05-21T05:10:20.982Z,20.17
2023-05-21T05:11:52.792Z,16.83
2023-05-21T05:13:26.099Z,16.90
2023-05-21T05:14:58.825Z,18.40
2023-05-21T05:16:35.491Z,15.57
2023-05-21T05:18:09.285Z,15.83
2023-05-21T05:19:42.075Z,17.27
2023-05-21T05:21:13.859Z,15.73
2023-05-21T05:22:46.595Z,19.37
2023-05-21T05:24:19.374Z,18.33
2023-05-21T05:25:52.501Z,16.93
2023-05-21T05:27:25.612Z,16.83
2023-05-21T05:28:58.368Z,15.83
2023-05-21T05:30:31.266Z,17.97
2023-05-21T05:32:05.985Z,19.57
2023-05-21T05:33:38.753Z,15.13
2023-05-21T05:35:11.555Z,18.53
2023-05-21T05:36:44.279Z,17.53
2023-05-21T05:38:17.421Z,15.63
2023-05-21T05:39:49.246Z,18.77
2023-05-21T05:41:22.584Z,18.13
2023-05-21T05:42:55.388Z,17.37
2023-05-21T05:44:28.242Z,15.53
2023-05-21T05:46:01.191Z,18.23
2023-05-21T05:47:35.613Z,15.83
2023-05-21T05:49:08.333Z,16.50
2023-05-21T05:50:41.131Z,16.13
2023-05-21T05:52:14.194Z,17.10
2023-05-21T05:53:46.907Z,18.20
2023-05-21T05:55:19.667Z,15.87
2023-05-21T05:56:52.411Z,16.37
2023-05-21T05:58:25.160Z,18.73
2023-05-21T05:59:57.905Z,16.83
2023-05-21T06:01:31.951Z,17.07
2023-05-21T06:03:06.382Z,15.73
2023-05-21T06:04:39.145Z,16.30
2023-05-21T06:06:11.577Z,16.63
2023-05-21T06:07:44.388Z,16.40
2023-05-21T06:09:17.143Z,19.50
2023-05-21T06:10:49.869Z,17.53
2023-05-21T06:12:22.599Z,17.30
2023-05-21T06:13:55.471Z,16.10
2023-05-21T06:15:28.200Z,17.63
2023-05-21T06:17:01.026Z,16.97
2023-05-21T06:18:35.076Z,16.73
2023-05-21T06:20:10.346Z,14.93
2023-05-21T06:21:43.098Z,16.33
2023-05-21T06:23:15.979Z,15.03
2023-05-21T06:24:48.772Z,16.57
2023-05-21T06:26:21.897Z,17.67
2023-05-21T06:27:54.681Z,15.53
2023-05-21T06:29:27.449Z,15.77
2023-05-21T06:31:00.191Z,16.87
2023-05-21T06:32:33.015Z,15.90
2023-05-21T06:34:06.328Z,15.30
2023-05-21T06:35:40.128Z,15.53
2023-05-21T06:37:12.865Z,15.37
2023-05-21T06:38:45.604Z,14.67
2023-05-21T06:40:17.502Z,14.87
2023-05-21T06:41:50.263Z,15.10
2023-05-21T06:43:22.221Z,13.67
2023-05-21T06:44:54.963Z,16.03
2023-05-21T06:46:27.783Z,17.60
2023-05-21T06:48:00.697Z,14.83
2023-05-21T06:49:35.259Z,17.33
2023-05-21T06:51:08.072Z,14.23
2023-05-21T06:52:40.855Z,16.17
2023-05-21T06:54:14.197Z,17.23
2023-05-21T06:55:47.073Z,15.93
2023-05-21T06:57:19.944Z,16.73
2023-05-21T06:58:53.165Z,13.80
2023-05-21T07:00:26.245Z,13.87
2023-05-21T07:01:59.020Z,13.03
2023-05-21T07:03:31.838Z,13.83
2023-05-21T07:05:06.570Z,13.83
2023-05-21T07:06:40.236Z,15.80
2023-05-21T07:08:12.991Z,17.07
2023-05-21T07:09:45.742Z,15.40
2023-05-21T07:11:18.487Z,13.83
2023-05-21T07:12:51.208Z,13.83
2023-05-21T07:14:25.736Z,13.50
2023-05-21T07:16:00.324Z,12.67
2023-05-21T07:17:33.103Z,12.93
2023-05-21T07:19:06.151Z,13.50
2023-05-21T07:20:40.266Z,13.77
2023-05-21T07:22:13.633Z,14.60
2023-05-21T07:23:46.383Z,12.50
2023-05-21T07:25:18.197Z,13.53
2023-05-21T07:26:50.986Z,12.80
2023-05-21T07:28:23.794Z,13.30
2023-05-21T07:29:56.551Z,12.57
2023-05-21T07:31:29.388Z,13.33
2023-05-21T07:33:02.298Z,13.37
2023-05-21T07:34:35.042Z,12.60
2023-05-21T07:36:09.298Z,14.07
2023-05-21T07:37:41.647Z,12.70
2023-05-21T07:39:14.480Z,14.23
2023-05-21T07:40:47.276Z,13.17
2023-05-21T07:42:19.995Z,12.77
2023-05-21T07:43:52.725Z,12.97
2023-05-21T07:45:25.642Z,12.97
2023-05-21T07:46:58.576Z,12.70
2023-05-21T07:48:33.541Z,12.60
2023-05-21T07:50:08.166Z,12.33
2023-05-21T07:51:42.564Z,12.87
2023-05-21T07:53:14.419Z,13.30
2023-05-21T07:54:47.208Z,12.63
2023-05-21T07:56:19.939Z,12.83
2023-05-21T07:57:53.190Z,15.23
2023-05-21T07:59:26.298Z,13.00
2023-05-21T08:00:59.045Z,12.73
2023-05-21T08:02:31.860Z,12.77
2023-05-21T08:04:06.685Z,12.40
2023-05-21T08:05:39.648Z,12.57
2023-05-21T08:07:15.125Z,12.70
2023-05-21T08:08:47.880Z,13.37
2023-05-21T08:10:20.606Z,13.00
2023-05-21T08:11:53.400Z,12.87
2023-05-21T08:13:26.233Z,13.03
2023-05-21T08:14:59.187Z,12.60
2023-05-21T08:16:32.379Z,12.23
2023-05-21T08:18:05.777Z,13.27
2023-05-21T08:19:38.617Z,12.40
2023-05-21T08:21:11.760Z,12.60
2023-05-21T08:22:46.009Z,13.33
2023-05-21T08:24:18.773Z,13.30
2023-05-21T08:25:53.204Z,12.90
2023-05-21T08:27:25.975Z,12.80
2023-05-21T08:28:59.147Z,12.83
2023-05-21T08:30:31.863Z,12.67
2023-05-21T08:32:04.972Z,13.93
2023-05-21T08:33:38.206Z,13.57
2023-05-21T08:35:11.100Z,14.47
2023-05-21T08:36:46.010Z,14.60
2023-05-21T08:38:20.174Z,14.47
2023-05-21T08:39:52.967Z,12.77
2023-05-21T08:41:26.877Z,13.07
2023-05-21T08:42:58.705Z,12.17
2023-05-21T08:44:35.589Z,13.30
2023-05-21T08:46:10.816Z,12.90
2023-05-21T08:47:44.533Z,13.97
2023-05-21T08:49:19.587Z,13.23
2023-05-21T08:50:53.423Z,14.50
2023-05-21T08:52:27.120Z,13.67
2023-05-21T08:54:03.507Z,13.23
2023-05-21T08:55:38.837Z,13.40
2023-05-21T08:57:10.991Z,12.93
2023-05-21T08:58:45.975Z,12.97
2023-05-21T09:00:20.670Z,12.63
2023-05-21T09:01:54.087Z,12.77
2023-05-21T09:03:27.535Z,12.70
2023-05-21T09:05:03.142Z,14.50
2023-05-21T09:06:36.144Z,12.97
2023-05-21T09:08:15.932Z,13.30
2023-05-21T09:09:55.815Z,12.90
2023-05-21T09:11:28.662Z,12.90
2023-05-21T09:13:01.576Z,14.07
2023-05-21T09:14:34.951Z,13.17
2023-05-21T09:16:08.990Z,13.27
2023-05-21T09:17:41.778Z,12.47
2023-05-21T09:19:14.648Z,13.30
2023-05-21T09:20:47.410Z,13.57
2023-05-21T09:22:24.598Z,12.80
2023-05-21T09:23:58.632Z,13.07
2023-05-21T09:25:33.341Z,13.30
2023-05-21T09:27:08.003Z,13.10
2023-05-21T09:28:40.819Z,13.23
2023-05-21T09:30:15.173Z,13.20
2023-05-21T09:31:48.164Z,13.70
2023-05-21T09:33:29.217Z,12.90
2023-05-21T09:35:09.394Z,12.63
2023-05-21T09:36:43.702Z,12.40
2023-05-21T09:38:16.564Z,12.47
2023-05-21T09:39:49.470Z,12.33
2023-05-21T09:41:32.474Z,13.03
2023-05-21T09:43:06.310Z,13.07
2023-05-21T09:44:38.148Z,13.83
2023-05-21T09:46:11.012Z,12.30
2023-05-21T09:47:44.665Z,12.13
2023-05-21T09:49:26.149Z,13.17
2023-05-21T09:51:11.892Z,11.87
2023-05-21T09:52:44.639Z,12.60
2023-05-21T09:54:17.422Z,12.97
2023-05-21T09:55:58.308Z,12.30
2023-05-21T09:57:32.459Z,12.17
2023-05-21T09:59:05.414Z,12.33
2023-05-21T10:00:38.324Z,12.27
2023-05-21T10:02:20.547Z,11.47
2023-05-21T10:03:57.253Z,12.30
2023-05-21T10:05:31.228Z,11.87
2023-05-21T10:07:04.124Z,12.20
2023-05-21T10:08:37.381Z,12.20
2023-05-21T10:10:14.553Z,14.23
2023-05-21T10:11:49.993Z,12.30
2023-05-21T10:13:25.147Z,11.43
2023-05-21T10:15:05.369Z,11.37
2023-05-21T10:16:38.447Z,12.27
2023-05-21T10:18:12.288Z,12.43
2023-05-21T10:19:47.176Z,12.50
2023-05-21T10:21:20.262Z,12.27
2023-05-21T10:22:53.909Z,11.83
2023-05-21T10:24:27.418Z,12.07
2023-05-21T10:26:00.996Z,12.50
2023-05-21T10:27:35.766Z,11.83
2023-05-21T10:29:09.931Z,11.63
2023-05-21T10:30:43.368Z,12.47
2023-05-21T10:32:17.339Z,11.90
2023-05-21T10:33:50.283Z,11.33
2023-05-21T10:35:23.981Z,12.00
2023-05-21T10:36:58.846Z,12.63
2023-05-21T10:38:34.431Z,11.70
2023-05-21T10:40:08.593Z,11.80
2023-05-21T10:41:52.369Z,12.53
2023-05-21T10:43:39.818Z,12.00
2023-05-21T10:45:22.630Z,12.60
2023-05-21T10:47:34.196Z,12.37
2023-05-21T10:49:22.567Z,12.17
2023-05-21T10:51:17.413Z,12.23
2023-05-21T10:53:09.949Z,12.73
2023-05-21T10:54:59.014Z,12.70
2023-05-21T10:56:39.766Z,12.43
2023-05-21T10:58:31.076Z,13.40
2023-05-21T11:00:05.016Z,12.77
2023-05-21T11:01:40.454Z,12.67
2023-05-21T11:03:14.827Z,13.77
2023-05-21T11:04:58.712Z,12.80
2023-05-21T11:06:31.036Z,12.40
2023-05-21T11:08:04.262Z,12.20
2023-05-21T11:09:37.055Z,13.50
2023-05-21T11:11:09.306Z,14.13
2023-05-21T11:13:06.260Z,12.90
2023-05-21T11:14:40.395Z,12.30
2023-05-21T11:16:16.795Z,12.90
2023-05-21T11:17:51.249Z,12.50
2023-05-21T11:19:35.374Z,13.27
2023-05-21T11:21:10.002Z,13.57
2023-05-21T11:22:42.857Z,13.23
2023-05-21T11:24:20.901Z,13.90
2023-05-21T11:26:01.232Z,12.60
2023-05-21T11:27:35.622Z,15.03
2023-05-21T11:29:08.525Z,13.90
2023-05-21T11:30:41.398Z,13.20
2023-05-21T11:32:17.360Z,12.07
2023-05-21T11:34:09.767Z,13.67
2023-05-21T11:35:59.227Z,13.33
2023-05-21T11:37:34.522Z,13.03
2023-05-21T11:39:11.698Z,13.70
2023-05-21T11:40:54.588Z,13.13
2023-05-21T11:42:31.668Z,13.27
2023-05-21T11:44:09.657Z,13.20
2023-05-21T11:45:46.779Z,13.20
2023-05-21T11:47:19.875Z,13.70
2023-05-21T11:48:54.945Z,13.10
2023-05-21T11:50:30.582Z,13.23
2023-05-21T11:52:03.740Z,13.03
2023-05-21T11:53:38.727Z,12.90
2023-05-21T11:55:12.192Z,12.70
2023-05-21T11:56:45.165Z,12.30
2023-05-21T11:58:20.063Z,12.40
2023-05-21T11:59:52.166Z,12.37
2023-05-21T12:01:26.413Z,12.63
2023-05-21T12:02:59.328Z,12.57
2023-05-21T12:04:33.001Z,13.07
2023-05-21T12:06:06.497Z,12.90
2023-05-21T12:07:39.515Z,13.87
2023-05-21T12:09:13.772Z,13.70
2023-05-21T12:10:46.621Z,13.17
2023-05-21T12:12:21.315Z,11.87
2023-05-21T12:13:54.111Z,11.37
2023-05-21T12:15:28.101Z,11.80
2023-05-21T12:17:00.180Z,11.47
2023-05-21T12:18:33.001Z,11.57
2023-05-21T12:20:10.604Z,11.50
2023-05-21T12:21:43.486Z,10.73
2023-05-21T12:23:21.015Z,11.40
2023-05-21T12:24:54.572Z,11.07
2023-05-21T12:26:28.132Z,11.87
2023-05-21T12:28:03.391Z,11.63
2023-05-21T12:29:36.641Z,11.07
2023-05-21T12:31:15.946Z,10.63
2023-05-21T12:32:50.205Z,10.57
2023-05-21T12:34:39.243Z,10.87
2023-05-21T12:36:22.943Z,11.50
2023-05-21T12:37:55.774Z,11.97
2023-05-21T12:39:27.622Z,11.00
2023-05-21T12:41:04.881Z,11.37
2023-05-21T12:42:40.071Z,11.50
2023-05-21T12:44:11.964Z,12.17
2023-05-21T12:45:45.041Z,12.13
2023-05-21T12:47:18.330Z,11.70
2023-05-21T12:48:51.444Z,11.07
2023-05-21T12:50:24.485Z,10.63
2023-05-21T12:51:59.138Z,11.50
2023-05-21T12:53:38.163Z,10.03
2023-05-21T12:55:14.009Z,10.60
2023-05-21T12:56:47.248Z,9.93
2023-05-21T12:58:23.066Z,10.27
2023-05-21T12:59:57.302Z,10.43
2023-05-21T13:01:30.117Z,10.23
2023-05-21T13:03:04.652Z,10.80
2023-05-21T13:04:37.694Z,10.73
2023-05-21T13:06:10.480Z,9.93
2023-05-21T13:07:46.696Z,10.00
2023-05-21T13:09:20.371Z,10.20
2023-05-21T13:10:53.154Z,10.30
2023-05-21T13:12:27.131Z,10.30
2023-05-21T13:13:59.878Z,10.60
2023-05-21T13:15:32.919Z,9.80
2023-05-21T13:17:05.824Z,10.00
2023-05-21T13:18:38.576Z,10.33
2023-05-21T13:20:13.437Z,9.83
2023-05-21T13:21:46.176Z,10.87
2023-05-21T13:23:20.458Z,10.97
2023-05-21T13:24:52.298Z,10.37
2023-05-21T13:26:25.047Z,10.20
2023-05-21T13:27:58.797Z,11.00
2023-05-21T13:29:31.543Z,10.27
2023-05-21T13:31:04.405Z,10.30
2023-05-21T13:32:37.532Z,10.17
2023-05-21T13:34:11.109Z,10.50
2023-05-21T13:35:45.619Z,10.50
2023-05-21T13:37:20.087Z,10.27
2023-05-21T13:38:56.312Z,10.30
2023-05-21T13:40:29.158Z,10.47
2023-05-21T13:42:01.937Z,10.77
2023-05-21T13:43:34.725Z,10.47
2023-05-21T13:45:09.238Z,10.90
2023-05-21T13:46:42.027Z,10.40
2023-05-21T13:48:14.835Z,10.17
2023-05-21T13:49:47.707Z,10.60
2023-05-21T13:51:37.471Z,10.07
2023-05-21T13:53:11.605Z,9.97
2023-05-21T13:54:45.746Z,10.30
2023-05-21T13:56:18.507Z,10.60
2023-05-21T13:57:51.258Z,10.00
2023-05-21T13:59:24.067Z,9.57
2023-05-21T14:00:56.910Z,10.50
2023-05-21T14:02:29.946Z,9.97
2023-05-21T14:04:05.401Z,10.07
2023-05-21T14:05:38.429Z,9.73
2023-05-21T14:07:12.203Z,9.93
2023-05-21T14:08:44.987Z,9.57
2023-05-21T14:10:20.297Z,9.60
2023-05-21T14:11:53.022Z,9.43
2023-05-21T14:13:25.950Z,10.00
2023-05-21T14:14:58.699Z,9.03
2023-05-21T14:16:31.766Z,10.00
2023-05-21T14:18:07.826Z,9.73
2023-05-21T14:19:41.135Z,9.67
2023-05-21T14:21:13.858Z,9.90
2023-05-21T14:22:46.633Z,10.07
2023-05-21T14:24:19.410Z,9.53
2023-05-21T14:25:53.624Z,9.53
2023-05-21T14:27:26.354Z,10.57
2023-05-21T14:28:59.138Z,9.80
2023-05-21T14:30:31.871Z,9.80
2023-05-21T14:32:04.727Z,9.47
2023-05-21T14:33:38.318Z,10.00
2023-05-21T14:35:11.057Z,10.27
2023-05-21T14:36:43.806Z,9.47
2023-05-21T14:38:16.615Z,9.80
2023-05-21T14:39:49.422Z,9.57
2023-05-21T14:41:27.418Z,9.20
2023-05-21T14:43:00.605Z,9.20
2023-05-21T14:44:33.388Z,9.40
2023-05-21T14:46:06.277Z,9.10
2023-05-21T14:47:39.119Z,9.60
2023-05-21T14:49:12.205Z,9.27
2023-05-21T14:50:45.288Z,9.60
2023-05-21T14:52:18.029Z,9.50
2023-05-21T14:53:51.089Z,10.07
2023-05-21T14:55:24.017Z,9.53
2023-05-21T14:56:58.084Z,9.10
2023-05-21T14:58:30.797Z,9.17
2023-05-21T15:00:03.944Z,9.57
2023-05-21T15:01:36.754Z,9.00
2023-05-21T15:03:09.648Z,9.10
2023-05-21T15:04:42.461Z,9.60
2023-05-21T15:06:15.304Z,8.83
2023-05-21T15:07:48.146Z,9.80
2023-05-21T15:09:20.891Z,10.47
2023-05-21T15:10:53.677Z,9.27
2023-05-21T15:12:27.765Z,9.60
2023-05-21T15:14:00.550Z,10.10
2023-05-21T15:15:33.325Z,9.63
2023-05-21T15:17:06.129Z,9.20
2023-05-21T15:18:38.912Z,9.50
2023-05-21T15:20:12.182Z,9.97
2023-05-21T15:21:44.939Z,9.93
2023-05-21T15:23:18.153Z,9.73
2023-05-21T15:24:50.941Z,10.80
2023-05-21T15:26:25.251Z,10.13
2023-05-21T15:27:59.425Z,9.77
2023-05-21T15:29:32.388Z,9.80
2023-05-21T15:31:05.201Z,10.37
2023-05-21T15:32:38.029Z,9.63
2023-05-21T15:34:10.845Z,9.23
2023-05-21T15:35:44.153Z,9.80
2023-05-21T15:37:17.321Z,10.83
2023-05-21T15:38:50.062Z,9.50
2023-05-21T15:40:25.476Z,9.77
2023-05-21T15:41:59.611Z,10.63
2023-05-21T15:43:33.779Z,9.90
2023-05-21T15:45:07.540Z,9.27
2023-05-21T15:46:40.525Z,9.53
2023-05-21T15:48:13.697Z,9.67
2023-05-21T15:49:46.584Z,9.40
2023-05-21T15:51:19.578Z,9.63
2023-05-21T15:52:53.545Z,9.93
2023-05-21T15:54:26.497Z,10.17
2023-05-21T15:55:59.231Z,9.43
2023-05-21T15:57:32.075Z,9.40
2023-05-21T15:59:06.170Z,9.63
2023-05-21T16:00:39.008Z,10.80
2023-05-21T16:02:11.850Z,10.40
2023-05-21T16:03:44.700Z,9.70
2023-05-21T16:05:17.534Z,9.60
2023-05-21T16:06:50.283Z,9.30
2023-05-21T16:08:23.024Z,9.63
2023-05-21T16:09:55.797Z,9.43
2023-05-21T16:11:29.228Z,11.47
2023-05-21T16:13:02.044Z,10.60
2023-05-21T16:14:36.156Z,10.40
2023-05-21T16:16:09.444Z,10.87
2023-05-21T16:17:42.232Z,10.77
2023-05-21T16:19:15.043Z,9.80
2023-05-21T16:20:48.230Z,10.00
2023-05-21T16:22:21.192Z,10.20
2023-05-21T16:23:54.017Z,9.83
2023-05-21T16:25:26.758Z,9.67
2023-05-21T16:26:59.508Z,10.13
2023-05-21T16:28:32.253Z,10.43
2023-05-21T16:30:07.677Z,9.80
2023-05-21T16:31:40.473Z,9.77
2023-05-21T16:33:12.454Z,10.60
2023-05-21T16:34:45.273Z,10.37
2023-05-21T16:36:18.094Z,11.03
2023-05-21T16:37:50.878Z,9.90
2023-05-21T16:39:23.609Z,10.30
2023-05-21T16:40:56.566Z,9.47
2023-05-21T16:42:29.305Z,9.43
2023-05-21T16:44:02.105Z,10.87
2023-05-21T16:45:41.321Z,9.87
2023-05-21T16:47:14.217Z,9.90
2023-05-21T16:48:46.949Z,9.23
2023-05-21T16:50:19.028Z,9.70
2023-05-21T16:51:51.961Z,10.07
2023-05-21T16:53:24.712Z,9.10
2023-05-21T16:54:57.459Z,9.23
2023-05-21T16:56:30.258Z,9.40
2023-05-21T16:58:04.238Z,9.17
2023-05-21T16:59:36.978Z,9.47
2023-05-21T17:01:11.192Z,9.67
2023-05-21T17:02:44.050Z,8.67
2023-05-21T17:04:16.945Z,9.73
2023-05-21T17:05:49.767Z,9.77
2023-05-21T17:07:22.548Z,9.73
2023-05-21T17:08:55.556Z,9.77
2023-05-21T17:10:28.479Z,10.27
2023-05-21T17:12:01.251Z,9.60
2023-05-21T17:13:34.021Z,10.17
2023-05-21T17:15:08.008Z,9.63
2023-05-21T17:16:42.751Z,9.57
2023-05-21T17:18:15.663Z,9.10
2023-05-21T17:19:48.433Z,10.33
2023-05-21T17:21:21.240Z,9.90
2023-05-21T17:22:54.016Z,9.60
2023-05-21T17:24:26.835Z,9.63
2023-05-21T17:25:59.570Z,9.43
2023-05-21T17:27:32.857Z,10.03
2023-05-21T17:29:05.712Z,11.97
2023-05-21T17:30:38.614Z,9.87
2023-05-21T17:32:12.973Z,10.10
2023-05-21T17:33:45.865Z,10.67
2023-05-21T17:35:18.641Z,9.77
2023-05-21T17:36:51.372Z,10.57
2023-05-21T17:38:24.147Z,10.03
2023-05-21T17:39:57.596Z,10.47
2023-05-21T17:41:31.143Z,10.00
2023-05-21T17:43:04.239Z,9.60
2023-05-21T17:44:37.072Z,9.93
2023-05-21T17:46:09.844Z,10.13
2023-05-21T17:47:44.016Z,10.40
2023-05-21T17:49:17.013Z,10.87
2023-05-21T17:50:49.889Z,12.00
2023-05-21T17:52:22.654Z,10.70
2023-05-21T17:53:55.400Z,10.67
2023-05-21T17:55:28.180Z,11.53
2023-05-21T17:57:00.919Z,10.70
2023-05-21T17:58:33.738Z,9.77
2023-05-21T18:00:08.471Z,10.33
2023-05-21T18:01:41.416Z,9.73
2023-05-21T18:03:15.556Z,10.00
2023-05-21T18:04:48.309Z,10.23
2023-05-21T18:06:21.105Z,13.43
2023-05-21T18:07:53.861Z,11.50
2023-05-21T18:09:26.623Z,11.83
2023-05-21T18:11:01.201Z,13.97
2023-05-21T18:12:34.408Z,10.53
2023-05-21T18:14:07.188Z,10.23
2023-05-21T18:15:39.909Z,11.13
2023-05-21T18:17:12.746Z,10.77
2023-05-21T18:18:46.874Z,11.07
2023-05-21T18:20:19.721Z,10.70
2023-05-21T18:21:52.472Z,10.80
2023-05-21T18:23:27.854Z,9.80
2023-05-21T18:25:01.449Z,10.10
2023-05-21T18:26:34.196Z,10.77
2023-05-21T18:28:07.143Z,10.33
2023-05-21T18:29:39.894Z,10.07
2023-05-21T18:31:12.846Z,9.77
2023-05-21T18:32:45.734Z,10.00
2023-05-21T18:34:19.887Z,9.40
2023-05-21T18:35:52.632Z,10.23
2023-05-21T18:37:25.636Z,10.40
2023-05-21T18:38:58.386Z,10.70
2023-05-21T18:40:33.112Z,10.57
2023-05-21T18:42:13.326Z,10.63
2023-05-21T18:43:47.053Z,10.73
2023-05-21T18:45:19.943Z,10.60
2023-05-21T18:46:54.376Z,10.60
2023-05-21T18:48:27.969Z,9.93
2023-05-21T18:50:02.029Z,9.77
2023-05-21T18:51:34.807Z,10.00
2023-05-21T18:53:07.613Z,10.63
2023-05-21T18:54:40.381Z,10.10
2023-05-21T18:56:13.113Z,9.80
2023-05-21T18:57:46.157Z,11.13
2023-05-21T18:59:18.911Z,11.67
2023-05-21T19:00:51.649Z,10.73
2023-05-21T19:02:25.361Z,10.23
2023-05-21T19:03:58.215Z,10.77
2023-05-21T19:05:32.839Z,10.53
2023-05-21T19:07:06.010Z,10.23
2023-05-21T19:08:38.989Z,10.20
2023-05-21T19:10:13.849Z,10.87
2023-05-21T19:11:46.699Z,9.97
2023-05-21T19:13:19.506Z,10.60
2023-05-21T19:14:52.249Z,10.17
2023-05-21T19:16:25.104Z,9.70
2023-05-21T19:17:58.001Z,9.57
2023-05-21T19:19:30.853Z,9.77
2023-05-21T19:21:05.176Z,9.83
2023-05-21T19:22:37.985Z,10.30
2023-05-21T19:24:10.799Z,9.77
2023-05-21T19:25:43.600Z,9.97
2023-05-21T19:27:16.405Z,9.30
2023-05-21T19:28:52.756Z,9.87
2023-05-21T19:30:25.533Z,10.30
2023-05-21T19:31:59.079Z,10.00
2023-05-21T19:33:31.966Z,9.97
2023-05-21T19:35:05.576Z,9.73
2023-05-21T19:36:52.093Z,10.20
2023-05-21T19:38:26.399Z,8.97
2023-05-21T19:39:59.191Z,9.77
2023-05-21T19:41:31.958Z,9.63
2023-05-21T19:43:04.788Z,9.57
2023-05-21T19:44:39.274Z,9.80
2023-05-21T19:46:12.091Z,9.57
2023-05-21T19:47:44.979Z,10.27
2023-05-21T19:49:19.755Z,10.30
2023-05-21T19:50:52.491Z,9.70
2023-05-21T19:52:26.572Z,11.17
2023-05-21T19:53:59.303Z,10.10
2023-05-21T19:55:35.218Z,9.53
2023-05-21T19:57:09.096Z,9.77
2023-05-21T19:58:46.933Z,9.33
2023-05-21T20:00:20.302Z,9.60
2023-05-21T20:01:53.054Z,9.83
2023-05-21T20:03:26.170Z,9.70
2023-05-21T20:04:59.767Z,10.43
2023-05-21T20:06:32.493Z,11.03
2023-05-21T20:08:06.693Z,9.57
2023-05-21T20:09:39.868Z,10.07
2023-05-21T20:11:12.867Z,9.73
2023-05-21T20:12:45.968Z,9.77
2023-05-21T20:14:18.801Z,9.53
2023-05-21T20:15:52.122Z,9.33
2023-05-21T20:17:25.381Z,9.73